createdAt,value
2018-09-28T00:01:24.188Z,6.17
2018-09-28T00:03:51.698Z,6.10
2018-09-28T00:06:19.248Z,6.10
2018-09-28T00:08:46.812Z,6.30
2018-09-28T00:11:14.334Z,7.13
2018-09-28T00:13:41.866Z,7.03
2018-09-28T00:16:09.381Z,6.77
2018-09-28T00:18:36.923Z,5.67
2018-09-28T00:21:04.651Z,6.50
2018-09-28T00:23:32.188Z,6.50
2018-09-28T00:25:59.789Z,6.00
2018-09-28T00:28:27.322Z,6.33
2018-09-28T00:30:54.848Z,6.13
2018-09-28T00:33:22.385Z,6.40
2018-09-28T00:35:49.894Z,6.40
2018-09-28T00:38:17.534Z,6.23
2018-09-28T00:40:45.069Z,6.77
2018-09-28T00:43:12.571Z,5.33
2018-09-28T00:45:40.117Z,6.40
2018-09-28T00:48:07.868Z,5.77
2018-09-28T00:50:35.390Z,6.63
2018-09-28T00:53:03.001Z,5.73
2018-09-28T00:55:30.768Z,6.03
2018-09-28T00:57:58.316Z,5.83
2018-09-28T01:00:25.863Z,5.97
2018-09-28T01:02:53.397Z,6.63
2018-09-28T01:05:20.934Z,6.90
2018-09-28T01:07:48.512Z,7.10
2018-09-28T01:10:16.045Z,7.40
2018-09-28T01:12:43.587Z,6.90
2018-09-28T01:15:11.107Z,8.00
2018-09-28T01:17:38.657Z,8.73
2018-09-28T01:20:06.219Z,6.47
2018-09-28T01:22:33.866Z,8.40
2018-09-28T01:25:01.415Z,8.53
2018-09-28T01:27:28.991Z,8.67
2018-09-28T01:29:56.583Z,8.57
2018-09-28T01:32:24.119Z,8.53
2018-09-28T01:34:51.650Z,7.50
2018-09-28T01:37:19.213Z,7.93
2018-09-28T01:39:46.730Z,8.73
2018-09-28T01:42:14.505Z,7.73
2018-09-28T01:44:42.050Z,8.77
2018-09-28T01:47:09.575Z,9.60
2018-09-28T01:49:37.118Z,8.03
2018-09-28T01:52:04.685Z,8.57
2018-09-28T01:54:32.235Z,8.60
2018-09-28T01:56:59.789Z,9.43
2018-09-28T01:59:27.305Z,8.97
2018-09-28T02:01:55.009Z,9.53
2018-09-28T02:04:22.519Z,9.57
2018-09-28T02:06:50.087Z,9.90
2018-09-28T02:09:17.633Z,10.17
2018-09-28T02:11:45.185Z,10.23
2018-09-28T02:14:12.765Z,9.93
2018-09-28T02:16:40.332Z,10.77
2018-09-28T02:19:07.886Z,10.43
2018-09-28T02:21:35.405Z,11.77
2018-09-28T02:24:03.053Z,10.50
2018-09-28T02:26:30.627Z,12.00
2018-09-28T02:28:58.147Z,10.73
2018-09-28T02:31:25.686Z,11.40
2018-09-28T02:33:53.221Z,11.70
2018-09-28T02:36:20.754Z,11.10
2018-09-28T02:38:48.290Z,11.90
2018-09-28T02:41:15.817Z,11.40
2018-09-28T02:43:43.346Z,10.37
2018-09-28T02:46:10.897Z,12.67
2018-09-28T02:48:38.459Z,9.90
2018-09-28T02:51:06.388Z,11.73
2018-09-28T02:53:33.961Z,11.83
2018-09-28T02:56:01.498Z,12.60
2018-09-28T02:58:28.997Z,12.70
2018-09-28T03:00:56.563Z,12.90
2018-09-28T03:03:30.738Z,12.37
2018-09-28T03:05:58.298Z,12.83
2018-09-28T03:08:25.809Z,11.33
2018-09-28T03:10:53.358Z,12.60
2018-09-28T03:13:20.849Z,12.73
2018-09-28T03:15:48.595Z,12.17
2018-09-28T03:18:16.110Z,12.63
2018-09-28T03:20:43.637Z,11.60
2018-09-28T03:23:11.181Z,12.67
2018-09-28T03:25:38.714Z,13.80
2018-09-28T03:28:06.243Z,14.00
2018-09-28T03:30:34.147Z,12.73
2018-09-28T03:33:01.671Z,13.90
2018-09-28T03:35:29.195Z,14.77
2018-09-28T03:37:56.726Z,13.33
2018-09-28T03:40:24.342Z,13.07
2018-09-28T03:42:51.820Z,13.87
2018-09-28T03:45:19.378Z,13.97
2018-09-28T03:47:48.211Z,12.83
2018-09-28T03:50:15.860Z,13.23
2018-09-28T03:52:43.635Z,13.43
2018-09-28T03:55:11.519Z,12.93
2018-09-28T03:57:39.080Z,13.83
2018-09-28T04:00:07.576Z,14.53
2018-09-28T04:02:35.095Z,12.93
2018-09-28T04:05:02.702Z,13.00
2018-09-28T04:07:30.225Z,14.23
2018-09-28T04:09:57.778Z,12.53
2018-09-28T04:12:25.288Z,13.77
2018-09-28T04:14:52.847Z,13.63
2018-09-28T04:17:20.330Z,13.97
2018-09-28T04:19:48.093Z,15.00
2018-09-28T04:22:15.615Z,13.93
2018-09-28T04:24:43.157Z,14.20
2018-09-28T04:27:10.695Z,14.63
2018-09-28T04:29:38.274Z,14.10
2018-09-28T04:32:05.805Z,13.37
2018-09-28T04:34:33.394Z,14.73
2018-09-28T04:37:00.917Z,14.47
2018-09-28T04:39:28.436Z,13.80
2018-09-28T04:41:56.024Z,14.27
2018-09-28T04:44:23.588Z,13.73
2018-09-28T04:46:51.111Z,13.10
2018-09-28T04:49:18.726Z,14.60
2018-09-28T04:51:46.418Z,12.60
2018-09-28T04:54:13.963Z,13.50
2018-09-28T04:56:41.520Z,13.80
2018-09-28T04:59:09.098Z,12.07
2018-09-28T05:01:36.615Z,12.03
2018-09-28T05:04:04.155Z,13.27
2018-09-28T05:06:31.764Z,12.13
2018-09-28T05:08:59.636Z,12.80
2018-09-28T05:11:27.209Z,11.80
2018-09-28T05:13:54.729Z,11.83
2018-09-28T05:16:22.280Z,11.87
2018-09-28T05:18:50.007Z,11.50
2018-09-28T05:21:17.554Z,10.73
2018-09-28T05:23:45.166Z,10.30
2018-09-28T05:26:12.691Z,11.13
2018-09-28T05:28:40.202Z,10.70
2018-09-28T05:31:07.944Z,10.37
2018-09-28T05:33:35.506Z,9.93
2018-09-28T05:36:03.043Z,10.27
2018-09-28T05:38:30.687Z,9.23
2018-09-28T05:40:58.248Z,9.57
2018-09-28T05:43:25.769Z,9.50
2018-09-28T05:45:53.469Z,8.23
2018-09-28T05:48:20.973Z,8.50
2018-09-28T05:50:48.493Z,8.57
2018-09-28T05:53:16.223Z,7.93
2018-09-28T05:55:43.779Z,8.00
2018-09-28T05:58:16.969Z,7.87
2018-09-28T06:00:50.105Z,7.80
2018-09-28T06:03:19.815Z,7.50
2018-09-28T06:05:53.009Z,6.53
2018-09-28T06:08:20.607Z,7.77
2018-09-28T06:10:48.457Z,7.10
2018-09-28T06:13:16.117Z,6.77
2018-09-28T06:15:43.671Z,6.47
2018-09-28T06:18:11.267Z,6.50
2018-09-28T06:20:38.894Z,5.83
2018-09-28T06:23:06.408Z,6.23
2018-09-28T06:25:34.028Z,6.17
2018-09-28T06:28:02.777Z,6.10
2018-09-28T06:30:30.448Z,5.53
2018-09-28T06:32:58.041Z,6.10
2018-09-28T06:35:25.563Z,5.57
2018-09-28T06:37:53.205Z,6.93
2018-09-28T06:40:20.735Z,5.97
2018-09-28T06:42:48.285Z,5.80
2018-09-28T06:45:15.881Z,5.47
2018-09-28T06:47:43.540Z,5.80
2018-09-28T06:50:11.136Z,4.43
2018-09-28T06:52:38.674Z,5.17
2018-09-28T06:55:06.249Z,5.17
2018-09-28T06:57:35.211Z,5.43
2018-09-28T07:00:03.022Z,5.13
2018-09-28T07:02:30.651Z,5.00
2018-09-28T07:04:58.203Z,4.40
2018-09-28T07:07:25.766Z,4.07
2018-09-28T07:09:53.281Z,4.17
2018-09-28T07:12:20.860Z,5.07
2018-09-28T07:14:48.421Z,4.50
2018-09-28T07:17:15.979Z,4.67
2018-09-28T07:19:43.493Z,4.30
2018-09-28T07:22:11.292Z,3.90
2018-09-28T07:24:38.918Z,3.67
2018-09-28T07:27:06.403Z,3.90
2018-09-28T07:29:33.966Z,4.03
2018-09-28T07:32:01.549Z,3.43
2018-09-28T07:34:34.625Z,3.10
2018-09-28T07:37:02.320Z,3.50
2018-09-28T07:39:29.745Z,3.53
2018-09-28T07:41:57.389Z,3.67
2018-09-28T07:44:24.827Z,3.43
2018-09-28T07:46:52.393Z,4.07
2018-09-28T07:49:19.960Z,3.53
2018-09-28T07:51:47.489Z,3.77
2018-09-28T07:54:14.987Z,3.53
2018-09-28T07:56:42.535Z,2.93
2018-09-28T07:59:10.131Z,3.27
2018-09-28T08:01:37.658Z,2.30
2018-09-28T08:04:05.272Z,2.57
2018-09-28T08:06:32.894Z,2.80
2018-09-28T08:09:00.455Z,2.67
2018-09-28T08:11:28.022Z,2.27
2018-09-28T08:13:55.562Z,2.03
2018-09-28T08:16:23.153Z,2.57
2018-09-28T08:18:50.728Z,2.27
2018-09-28T08:21:18.279Z,2.37
2018-09-28T08:23:45.886Z,2.27
2018-09-28T08:26:13.652Z,1.90
2018-09-28T08:28:41.205Z,2.30
2018-09-28T08:31:08.790Z,2.60
2018-09-28T08:33:36.343Z,3.63
2018-09-28T08:36:03.911Z,3.43
2018-09-28T08:38:31.630Z,2.00
2018-09-28T08:40:59.181Z,2.20
2018-09-28T08:43:26.780Z,2.20
2018-09-28T08:45:54.270Z,2.10
2018-09-28T08:48:21.844Z,2.27
2018-09-28T08:50:49.381Z,2.40
2018-09-28T08:53:16.965Z,2.23
2018-09-28T08:55:44.556Z,2.00
2018-09-28T08:58:12.117Z,1.53
2018-09-28T09:00:39.719Z,2.27
2018-09-28T09:03:07.231Z,2.00
2018-09-28T09:05:34.825Z,2.63
2018-09-28T09:08:02.364Z,1.63
2018-09-28T09:10:29.990Z,1.33
2018-09-28T09:12:57.520Z,1.83
2018-09-28T09:15:25.074Z,1.60
2018-09-28T09:17:52.660Z,1.60
2018-09-28T09:20:20.195Z,1.77
2018-09-28T09:22:47.716Z,1.70
2018-09-28T09:25:15.229Z,1.10
2018-09-28T09:27:42.996Z,1.47
2018-09-28T09:30:10.573Z,2.03
2018-09-28T09:32:38.113Z,1.73
2018-09-28T09:35:05.714Z,1.77
2018-09-28T09:37:33.426Z,2.17
2018-09-28T09:40:01.026Z,1.47
2018-09-28T09:42:28.551Z,1.57
2018-09-28T09:44:56.054Z,1.50
2018-09-28T09:47:23.918Z,0.80
2018-09-28T09:49:51.457Z,1.30
2018-09-28T09:52:19.032Z,1.40
2018-09-28T09:54:46.562Z,1.90
2018-09-28T09:57:14.098Z,1.10
2018-09-28T09:59:41.640Z,1.47
2018-09-28T10:02:14.690Z,1.53
2018-09-28T10:04:42.228Z,1.57
2018-09-28T10:07:09.784Z,1.23
2018-09-28T10:09:37.331Z,1.27
2018-09-28T10:12:04.858Z,1.43
2018-09-28T10:14:32.424Z,1.63
2018-09-28T10:16:59.970Z,1.77
2018-09-28T10:19:27.600Z,1.37
2018-09-28T10:21:55.111Z,1.83
2018-09-28T10:24:23.628Z,2.37
2018-09-28T10:26:51.153Z,1.97
2018-09-28T10:29:18.724Z,1.73
2018-09-28T10:31:46.260Z,1.60
2018-09-28T10:34:13.876Z,1.60
2018-09-28T10:36:41.537Z,1.80
2018-09-28T10:39:09.435Z,2.00
2018-09-28T10:41:36.952Z,2.00
2018-09-28T10:44:04.688Z,1.47
2018-09-28T10:46:32.260Z,1.60
2018-09-28T10:48:59.796Z,1.73
2018-09-28T10:51:27.429Z,2.30
2018-09-28T10:53:54.880Z,1.73
2018-09-28T10:56:22.424Z,1.30
2018-09-28T10:58:50.053Z,1.43
2018-09-28T11:01:17.564Z,1.77
2018-09-28T11:03:45.188Z,1.33
2018-09-28T11:06:12.712Z,1.90
2018-09-28T11:08:40.284Z,1.27
2018-09-28T11:11:07.865Z,1.93
2018-09-28T11:13:35.463Z,1.37
2018-09-28T11:16:02.991Z,1.27
2018-09-28T11:18:30.517Z,1.53
2018-09-28T11:20:58.350Z,1.27
2018-09-28T11:23:25.990Z,1.20
2018-09-28T11:25:53.529Z,1.27
2018-09-28T11:28:21.091Z,0.70
2018-09-28T11:30:48.680Z,1.17
2018-09-28T11:33:16.313Z,1.33
2018-09-28T11:35:43.835Z,0.97
2018-09-28T11:38:11.552Z,1.23
2018-09-28T11:40:39.110Z,1.27
2018-09-28T11:43:06.726Z,1.27
2018-09-28T11:45:34.313Z,1.30
2018-09-28T11:48:01.830Z,1.33
2018-09-28T11:50:29.419Z,1.53
2018-09-28T11:52:56.966Z,1.37
2018-09-28T11:55:24.484Z,1.37
2018-09-28T11:57:52.107Z,1.47
2018-09-28T12:00:19.693Z,1.20
2018-09-28T12:02:47.215Z,1.23
2018-09-28T12:05:14.792Z,1.27
2018-09-28T12:07:42.355Z,1.10
2018-09-28T12:10:09.935Z,0.90
2018-09-28T12:12:37.517Z,1.40
2018-09-28T12:15:05.125Z,1.00
2018-09-28T12:17:32.683Z,1.10
2018-09-28T12:20:00.211Z,1.10
2018-09-28T12:22:27.779Z,1.13
2018-09-28T12:24:55.385Z,0.90
2018-09-28T12:27:23.029Z,1.23
2018-09-28T12:29:50.535Z,1.70
2018-09-28T12:32:18.135Z,0.90
2018-09-28T12:34:45.793Z,1.00
2018-09-28T12:37:13.359Z,0.87
2018-09-28T12:39:41.069Z,1.03
2018-09-28T12:42:08.540Z,1.70
2018-09-28T12:44:36.148Z,0.83
2018-09-28T12:47:03.688Z,1.10
2018-09-28T12:49:31.249Z,0.83
2018-09-28T12:51:58.819Z,1.03
2018-09-28T12:54:26.452Z,1.43
2018-09-28T12:56:53.959Z,1.23
2018-09-28T12:59:21.526Z,1.00
2018-09-28T13:01:49.103Z,1.33
2018-09-28T13:04:17.795Z,1.60
2018-09-28T13:06:47.046Z,1.20
2018-09-28T13:09:14.454Z,1.37
2018-09-28T13:11:42.017Z,1.13
2018-09-28T13:14:09.719Z,1.20
2018-09-28T13:16:37.477Z,1.10
2018-09-28T13:19:05.132Z,0.93
2018-09-28T13:21:32.693Z,1.20
2018-09-28T13:24:00.318Z,1.07
2018-09-28T13:26:27.911Z,1.47
2018-09-28T13:28:55.469Z,1.00
2018-09-28T13:31:23.336Z,0.80
2018-09-28T13:33:50.858Z,1.17
2018-09-28T13:36:18.464Z,0.93
2018-09-28T13:38:46.509Z,1.45
2018-09-28T13:41:14.047Z,0.88
2018-09-28T13:43:41.581Z,1.02
2018-09-28T13:46:09.184Z,0.75
2018-09-28T13:48:36.747Z,0.80
2018-09-28T13:51:04.355Z,1.30
2018-09-28T13:53:31.931Z,0.98
2018-09-28T13:55:59.493Z,0.72
2018-09-28T13:58:27.151Z,1.57
2018-09-28T14:00:54.600Z,1.40
2018-09-28T14:03:22.183Z,1.40
2018-09-28T14:05:49.845Z,0.90
2018-09-28T14:08:17.451Z,0.80
2018-09-28T14:10:45.045Z,1.10
2018-09-28T14:13:12.918Z,1.25
2018-09-28T14:15:40.450Z,0.72
2018-09-28T14:18:08.102Z,0.75
2018-09-28T14:20:36.085Z,0.93
2018-09-28T14:23:03.570Z,0.80
2018-09-28T14:25:31.254Z,1.20
2018-09-28T14:27:58.857Z,1.00
2018-09-28T14:30:26.417Z,0.78
2018-09-28T14:32:53.959Z,0.80
2018-09-28T14:35:21.792Z,0.72
2018-09-28T14:37:49.314Z,1.40
2018-09-28T14:40:16.954Z,0.95
2018-09-28T14:42:44.577Z,0.57
2018-09-28T14:45:12.130Z,0.60
2018-09-28T14:47:39.686Z,1.17
2018-09-28T14:50:07.275Z,0.72
2018-09-28T14:52:34.882Z,1.02
2018-09-28T14:55:02.458Z,1.30
2018-09-28T14:57:30.075Z,0.90
2018-09-28T14:59:57.576Z,1.10
2018-09-28T15:02:25.205Z,0.63
2018-09-28T15:04:52.688Z,0.90
2018-09-28T15:07:20.227Z,1.20
2018-09-28T15:09:47.750Z,0.83
2018-09-28T15:12:15.353Z,1.00
2018-09-28T15:14:42.924Z,1.10
2018-09-28T15:17:10.467Z,1.27
2018-09-28T15:19:38.038Z,0.97
2018-09-28T15:22:05.682Z,0.93
2018-09-28T15:24:34.394Z,0.93
2018-09-28T15:27:01.956Z,1.47
2018-09-28T15:29:29.550Z,1.77
2018-09-28T15:31:57.054Z,1.87
2018-09-28T15:34:24.564Z,1.20
2018-09-28T15:36:52.146Z,1.50
2018-09-28T15:39:19.760Z,1.07
2018-09-28T15:41:47.282Z,1.13
2018-09-28T15:44:14.828Z,0.83
2018-09-28T15:46:42.372Z,1.30
2018-09-28T15:49:09.889Z,2.90
2018-09-28T15:51:37.488Z,1.10
2018-09-28T15:54:05.030Z,1.00
2018-09-28T15:56:32.606Z,1.20
2018-09-28T15:59:00.233Z,1.37
2018-09-28T16:01:27.808Z,0.90
2018-09-28T16:03:55.381Z,1.27
2018-09-28T16:06:22.916Z,0.90
2018-09-28T16:08:50.414Z,1.20
2018-09-28T16:11:18.035Z,1.33
2018-09-28T16:13:45.594Z,1.33
2018-09-28T16:16:13.138Z,2.10
2018-09-28T16:18:41.898Z,1.30
2018-09-28T16:21:09.400Z,0.90
2018-09-28T16:23:37.424Z,1.03
2018-09-28T16:26:05.206Z,1.00
2018-09-28T16:28:32.770Z,1.23
2018-09-28T16:31:00.385Z,1.23
2018-09-28T16:33:28.030Z,0.60
2018-09-28T16:35:55.587Z,1.00
2018-09-28T16:38:23.140Z,0.80
2018-09-28T16:40:50.682Z,1.20
2018-09-28T16:43:18.546Z,0.97
2018-09-28T16:45:46.185Z,0.77
2018-09-28T16:48:13.696Z,0.97
2018-09-28T16:50:41.259Z,0.83
2018-09-28T16:53:08.858Z,0.70
2018-09-28T16:55:36.373Z,1.17
2018-09-28T16:58:03.927Z,0.60
2018-09-28T17:00:31.509Z,0.87
2018-09-28T17:02:59.039Z,0.90
2018-09-28T17:05:26.605Z,0.70
2018-09-28T17:07:54.175Z,0.77
2018-09-28T17:10:21.847Z,1.03
2018-09-28T17:12:49.678Z,0.87
2018-09-28T17:15:17.294Z,0.57
2018-09-28T17:17:44.835Z,0.80
2018-09-28T17:20:12.480Z,0.80
2018-09-28T17:22:40.010Z,0.77
2018-09-28T17:25:07.716Z,0.60
2018-09-28T17:27:35.559Z,0.40
2018-09-28T17:30:03.212Z,0.57
2018-09-28T17:32:30.854Z,0.90
2018-09-28T17:34:58.442Z,1.27
2018-09-28T17:37:25.925Z,1.83
2018-09-28T17:39:53.454Z,1.67
2018-09-28T17:42:21.070Z,2.90
2018-09-28T17:44:48.662Z,3.83
2018-09-28T17:47:16.504Z,4.33
2018-09-28T17:49:44.038Z,22.17
2018-09-28T17:52:11.609Z,13.43
2018-09-28T17:54:39.124Z,4.80
2018-09-28T17:57:06.977Z,13.00
2018-09-28T17:59:34.502Z,12.43
2018-09-28T18:02:02.091Z,31.70
2018-09-28T18:04:29.651Z,14.57
2018-09-28T18:06:57.225Z,5.73
2018-09-28T18:09:24.777Z,9.23
2018-09-28T18:11:52.323Z,5.37
2018-09-28T18:14:19.995Z,3.60
2018-09-28T18:16:47.511Z,1.50
2018-09-28T18:19:15.087Z,1.10
2018-09-28T18:21:42.717Z,1.23
2018-09-28T18:24:10.255Z,1.70
2018-09-28T18:26:37.775Z,0.97
2018-09-28T18:29:05.319Z,1.00
2018-09-28T18:31:32.847Z,1.10
2018-09-28T18:34:00.425Z,0.63
2018-09-28T18:36:27.971Z,1.23
2018-09-28T18:38:55.588Z,1.07
2018-09-28T18:41:23.197Z,1.00
2018-09-28T18:43:50.760Z,0.80
2018-09-28T18:46:18.560Z,1.20
2018-09-28T18:48:47.214Z,0.80
2018-09-28T18:51:15.144Z,1.43
2018-09-28T18:53:42.763Z,1.00
2018-09-28T18:56:10.480Z,1.00
2018-09-28T18:58:38.492Z,1.20
2018-09-28T19:01:06.415Z,1.10
2018-09-28T19:03:33.974Z,1.23
2018-09-28T19:06:01.599Z,1.00
2018-09-28T19:08:29.206Z,1.33
2018-09-28T19:10:56.920Z,1.43
2018-09-28T19:13:24.801Z,1.10
2018-09-28T19:15:52.466Z,1.37
2018-09-28T19:18:20.329Z,0.90
2018-09-28T19:20:47.887Z,0.90
2018-09-28T19:23:15.503Z,1.07
2018-09-28T19:25:43.358Z,1.47
2018-09-28T19:28:11.013Z,0.87
2018-09-28T19:30:39.031Z,1.00
2018-09-28T19:33:06.652Z,1.20
2018-09-28T19:35:34.434Z,1.43
2018-09-28T19:38:02.018Z,1.50
2018-09-28T19:40:29.577Z,1.10
2018-09-28T19:42:57.159Z,0.90
2018-09-28T19:45:24.721Z,1.20
2018-09-28T19:47:52.320Z,0.80
2018-09-28T19:50:19.886Z,1.17
2018-09-28T19:52:47.488Z,0.83
2018-09-28T19:55:15.153Z,1.00
2018-09-28T19:57:42.708Z,0.90
2018-09-28T20:00:10.286Z,1.30
2018-09-28T20:02:37.947Z,0.77
2018-09-28T20:05:05.514Z,0.90
2018-09-28T20:07:33.425Z,1.00
2018-09-28T20:10:01.155Z,1.00
2018-09-28T20:12:28.945Z,0.80
2018-09-28T20:14:56.561Z,0.83
2018-09-28T20:17:24.369Z,1.40
2018-09-28T20:19:51.954Z,0.90
2018-09-28T20:22:19.856Z,1.27
2018-09-28T20:24:47.592Z,1.07
2018-09-28T20:27:15.226Z,1.10
2018-09-28T20:29:43.040Z,0.93
2018-09-28T20:32:10.826Z,1.50
2018-09-28T20:34:39.329Z,0.90
2018-09-28T20:37:07.154Z,0.97
2018-09-28T20:39:34.908Z,0.70
2018-09-28T20:42:03.436Z,0.90
2018-09-28T20:44:31.529Z,1.37
2018-09-28T20:46:59.638Z,1.20
2018-09-28T20:49:27.804Z,1.00
2018-09-28T20:51:55.482Z,0.70
2018-09-28T20:54:23.218Z,0.83
2018-09-28T20:56:50.862Z,0.93
2018-09-28T21:01:55.730Z,1.10
2018-09-28T21:04:23.378Z,0.90
2018-09-28T21:06:51.078Z,1.00
2018-09-28T21:09:18.865Z,0.80
2018-09-28T21:11:46.536Z,0.77
2018-09-28T21:14:14.145Z,1.27
2018-09-28T21:16:41.866Z,0.90
2018-09-28T21:19:09.643Z,0.80
2018-09-28T21:21:37.440Z,0.73
2018-09-28T21:24:05.087Z,0.90
2018-09-28T21:26:32.755Z,1.17
2018-09-28T21:29:00.297Z,0.70
2018-09-28T21:31:27.961Z,0.83
2018-09-28T21:33:55.539Z,0.80
2018-09-28T21:36:23.099Z,0.83
2018-09-28T21:38:50.657Z,0.70
2018-09-28T21:41:18.259Z,1.37
2018-09-28T21:43:45.839Z,1.53
2018-09-28T21:46:13.367Z,0.80
2018-09-28T21:48:40.941Z,0.60
2018-09-28T21:51:08.473Z,1.00
2018-09-28T21:53:36.011Z,0.73
2018-09-28T21:56:03.619Z,1.40
2018-09-28T21:58:31.187Z,0.80
2018-09-28T22:00:58.732Z,1.20
2018-09-28T22:03:26.329Z,0.60
2018-09-28T22:05:53.869Z,0.80
2018-09-28T22:08:21.391Z,0.77
2018-09-28T22:10:49.281Z,1.07
2018-09-28T22:13:16.817Z,1.20
2018-09-28T22:15:44.399Z,1.23
2018-09-28T22:18:12.027Z,1.00
2018-09-28T22:20:39.573Z,1.17
2018-09-28T22:23:07.577Z,0.80
2018-09-28T22:25:35.113Z,1.07
2018-09-28T22:28:02.643Z,0.73
2018-09-28T22:30:30.525Z,1.00
2018-09-28T22:32:58.367Z,1.00
2018-09-28T22:35:25.999Z,1.00
2018-09-28T22:37:53.540Z,0.90
2018-09-28T22:40:21.332Z,1.30
2018-09-28T22:42:48.938Z,1.27
2018-09-28T22:45:16.493Z,1.23
2018-09-28T22:47:44.237Z,1.10
2018-09-28T22:50:11.753Z,1.17
2018-09-28T22:52:39.424Z,0.90
2018-09-28T22:55:07.376Z,0.70
2018-09-28T22:57:35.257Z,0.57
2018-09-28T23:00:02.905Z,1.17
2018-09-28T23:02:30.517Z,0.73
2018-09-28T23:04:58.147Z,0.73
2018-09-28T23:07:25.667Z,1.10
2018-09-28T23:10:00.066Z,1.33
2018-09-28T23:12:27.617Z,1.20
2018-09-28T23:14:55.149Z,1.10
2018-09-28T23:17:22.711Z,1.47
2018-09-28T23:19:50.225Z,1.13
2018-09-28T23:22:17.785Z,1.07
2018-09-28T23:24:45.625Z,1.17
2018-09-28T23:27:13.189Z,0.80
2018-09-28T23:29:40.741Z,1.40
2018-09-28T23:32:08.288Z,0.93
2018-09-28T23:34:35.907Z,1.00
2018-09-28T23:37:03.498Z,1.00
2018-09-28T23:39:31.314Z,1.20
2018-09-28T23:41:58.867Z,1.70
2018-09-28T23:44:26.448Z,1.07
2018-09-28T23:46:54.033Z,1.20
2018-09-28T23:49:21.588Z,1.67
2018-09-28T23:51:49.663Z,1.37
2018-09-28T23:54:17.224Z,1.07
2018-09-28T23:56:44.731Z,1.40
2018-09-28T23:59:12.369Z,0.90
